sensor_id;sensor_type;location;lat;lon;timestamp;temperature;humidity
50548;DHT22;38013;48.810;8.818;2023-02-18T00:01:31;13.70;68.40
50548;DHT22;38013;48.810;8.818;2023-02-18T00:03:58;13.70;68.40
50548;DHT22;38013;48.810;8.818;2023-02-18T00:06:29;13.60;68.40
50548;DHT22;38013;48.810;8.818;2023-02-18T00:08:57;13.70;68.50
50548;DHT22;38013;48.810;8.818;2023-02-18T00:11:28;13.60;68.50
50548;DHT22;38013;48.810;8.818;2023-02-18T00:13:59;13.60;68.60
50548;DHT22;38013;48.810;8.818;2023-02-18T00:16:28;13.60;68.30
50548;DHT22;38013;48.810;8.818;2023-02-18T00:18:57;13.60;68.30
50548;DHT22;38013;48.810;8.818;2023-02-18T00:21:26;13.60;68.30
50548;DHT22;38013;48.810;8.818;2023-02-18T00:23:54;13.60;68.30
50548;DHT22;38013;48.810;8.818;2023-02-18T00:26:21;13.60;68.30
50548;DHT22;38013;48.810;8.818;2023-02-18T00:28:49;13.60;68.20
50548;DHT22;38013;48.810;8.818;2023-02-18T00:31:28;13.50;68.20
50548;DHT22;38013;48.810;8.818;2023-02-18T00:33:59;13.60;68.20
50548;DHT22;38013;48.810;8.818;2023-02-18T00:36:26;13.60;68.20
50548;DHT22;38013;48.810;8.818;2023-02-18T00:38:57;13.60;68.20
50548;DHT22;38013;48.810;8.818;2023-02-18T00:41:26;13.60;68.20
50548;DHT22;38013;48.810;8.818;2023-02-18T00:43:54;13.60;68.10
50548;DHT22;38013;48.810;8.818;2023-02-18T00:46:22;13.60;68.00
50548;DHT22;38013;48.810;8.818;2023-02-18T00:48:49;13.60;68.10
50548;DHT22;38013;48.810;8.818;2023-02-18T00:51:17;13.60;68.00
50548;DHT22;38013;48.810;8.818;2023-02-18T00:53:46;13.60;68.00
50548;DHT22;38013;48.810;8.818;2023-02-18T00:56:13;13.60;68.10
50548;DHT22;38013;48.810;8.818;2023-02-18T00:58:41;13.60;68.10
50548;DHT22;38013;48.810;8.818;2023-02-18T01:01:10;13.60;68.20
50548;DHT22;38013;48.810;8.818;2023-02-18T01:03:40;13.60;68.10
50548;DHT22;38013;48.810;8.818;2023-02-18T01:06:08;13.60;68.20
50548;DHT22;38013;48.810;8.818;2023-02-18T01:08:36;13.60;68.30
50548;DHT22;38013;48.810;8.818;2023-02-18T01:11:05;13.60;68.50
50548;DHT22;38013;48.810;8.818;2023-02-18T01:13:33;13.60;68.40
50548;DHT22;38013;48.810;8.818;2023-02-18T01:16:00;13.50;68.80
50548;DHT22;38013;48.810;8.818;2023-02-18T01:18:28;13.50;68.50
50548;DHT22;38013;48.810;8.818;2023-02-18T01:20:55;13.50;68.40
50548;DHT22;38013;48.810;8.818;2023-02-18T01:23:23;13.50;68.40
50548;DHT22;38013;48.810;8.818;2023-02-18T01:25:50;13.50;68.40
50548;DHT22;38013;48.810;8.818;2023-02-18T01:28:17;13.50;68.30
50548;DHT22;38013;48.810;8.818;2023-02-18T01:30:46;13.50;68.30
50548;DHT22;38013;48.810;8.818;2023-02-18T01:33:13;13.50;68.20
50548;DHT22;38013;48.810;8.818;2023-02-18T01:35:40;13.50;68.20
50548;DHT22;38013;48.810;8.818;2023-02-18T01:38:07;13.40;68.10
50548;DHT22;38013;48.810;8.818;2023-02-18T01:40:35;13.50;68.20
50548;DHT22;38013;48.810;8.818;2023-02-18T01:43:03;13.40;68.00
50548;DHT22;38013;48.810;8.818;2023-02-18T01:45:50;13.40;68.10
50548;DHT22;38013;48.810;8.818;2023-02-18T01:48:31;13.40;68.20
50548;DHT22;38013;48.810;8.818;2023-02-18T01:51:55;13.40;68.10
50548;DHT22;38013;48.810;8.818;2023-02-18T01:54:30;13.40;68.20
50548;DHT22;38013;48.810;8.818;2023-02-18T01:57:02;13.30;68.10
50548;DHT22;38013;48.810;8.818;2023-02-18T01:59:37;13.40;68.20
50548;DHT22;38013;48.810;8.818;2023-02-18T02:02:08;13.40;68.20
50548;DHT22;38013;48.810;8.818;2023-02-18T02:04:37;13.40;68.30
50548;DHT22;38013;48.810;8.818;2023-02-18T02:07:04;13.40;68.20
50548;DHT22;38013;48.810;8.818;2023-02-18T02:09:31;13.30;68.20
50548;DHT22;38013;48.810;8.818;2023-02-18T02:20:45;13.30;68.20
50548;DHT22;38013;48.810;8.818;2023-02-18T02:35:44;13.30;67.90
50548;DHT22;38013;48.810;8.818;2023-02-18T02:38:29;13.40;67.80
50548;DHT22;38013;48.810;8.818;2023-02-18T02:41:02;13.40;67.70
50548;DHT22;38013;48.810;8.818;2023-02-18T02:43:50;13.40;67.60
50548;DHT22;38013;48.810;8.818;2023-02-18T02:46:26;13.40;67.60
50548;DHT22;38013;48.810;8.818;2023-02-18T02:49:07;13.40;67.40
50548;DHT22;38013;48.810;8.818;2023-02-18T02:52:11;13.50;67.50
50548;DHT22;38013;48.810;8.818;2023-02-18T02:54:41;13.50;67.30
50548;DHT22;38013;48.810;8.818;2023-02-18T02:57:40;13.50;67.20
50548;DHT22;38013;48.810;8.818;2023-02-18T03:00:14;13.50;67.10
50548;DHT22;38013;48.810;8.818;2023-02-18T03:12:11;13.60;67.00
50548;DHT22;38013;48.810;8.818;2023-02-18T03:15:12;13.60;67.10
50548;DHT22;38013;48.810;8.818;2023-02-18T03:17:51;13.50;67.10
50548;DHT22;38013;48.810;8.818;2023-02-18T03:20:28;13.60;67.00
50548;DHT22;38013;48.810;8.818;2023-02-18T03:23:03;13.50;67.10
50548;DHT22;38013;48.810;8.818;2023-02-18T03:25:34;13.60;67.00
50548;DHT22;38013;48.810;8.818;2023-02-18T03:28:09;13.60;66.90
50548;DHT22;38013;48.810;8.818;2023-02-18T03:30:52;13.60;67.50
50548;DHT22;38013;48.810;8.818;2023-02-18T03:33:47;13.50;66.90
50548;DHT22;38013;48.810;8.818;2023-02-18T03:36:19;13.50;66.80
50548;DHT22;38013;48.810;8.818;2023-02-18T03:38:57;13.50;66.80
50548;DHT22;38013;48.810;8.818;2023-02-18T03:41:26;13.50;66.80
50548;DHT22;38013;48.810;8.818;2023-02-18T03:43:57;13.60;66.80
50548;DHT22;38013;48.810;8.818;2023-02-18T03:46:31;13.50;66.80
50548;DHT22;38013;48.810;8.818;2023-02-18T03:48:59;13.50;66.70
50548;DHT22;38013;48.810;8.818;2023-02-18T03:51:27;13.50;66.70
50548;DHT22;38013;48.810;8.818;2023-02-18T03:53:57;13.60;66.60
50548;DHT22;38013;48.810;8.818;2023-02-18T03:56:24;13.60;66.50
50548;DHT22;38013;48.810;8.818;2023-02-18T03:58:50;13.60;66.40
50548;DHT22;38013;48.810;8.818;2023-02-18T04:01:17;13.60;66.30
50548;DHT22;38013;48.810;8.818;2023-02-18T04:03:44;13.70;66.30
50548;DHT22;38013;48.810;8.818;2023-02-18T04:06:11;13.70;66.10
50548;DHT22;38013;48.810;8.818;2023-02-18T04:08:38;13.70;65.90
50548;DHT22;38013;48.810;8.818;2023-02-18T04:11:05;13.70;65.80
50548;DHT22;38013;48.810;8.818;2023-02-18T04:13:32;13.70;65.60
50548;DHT22;38013;48.810;8.818;2023-02-18T04:15:59;13.70;65.40
50548;DHT22;38013;48.810;8.818;2023-02-18T04:18:26;13.70;65.40
50548;DHT22;38013;48.810;8.818;2023-02-18T04:20:53;13.70;65.20
50548;DHT22;38013;48.810;8.818;2023-02-18T04:23:19;13.70;65.20
50548;DHT22;38013;48.810;8.818;2023-02-18T04:25:46;13.70;65.20
50548;DHT22;38013;48.810;8.818;2023-02-18T04:28:14;13.70;65.20
50548;DHT22;38013;48.810;8.818;2023-02-18T04:30:46;13.70;65.10
50548;DHT22;38013;48.810;8.818;2023-02-18T04:33:14;13.70;64.90
50548;DHT22;38013;48.810;8.818;2023-02-18T04:35:41;13.70;65.00
50548;DHT22;38013;48.810;8.818;2023-02-18T04:38:10;13.60;64.80
50548;DHT22;38013;48.810;8.818;2023-02-18T04:40:37;13.60;64.70
50548;DHT22;38013;48.810;8.818;2023-02-18T04:43:04;13.60;64.70
50548;DHT22;38013;48.810;8.818;2023-02-18T04:45:30;13.60;65.00
50548;DHT22;38013;48.810;8.818;2023-02-18T04:47:57;13.60;64.70
50548;DHT22;38013;48.810;8.818;2023-02-18T04:50:24;13.60;64.80
50548;DHT22;38013;48.810;8.818;2023-02-18T04:52:51;13.60;64.80
50548;DHT22;38013;48.810;8.818;2023-02-18T04:55:18;13.60;64.70
50548;DHT22;38013;48.810;8.818;2023-02-18T04:57:45;13.50;64.70
50548;DHT22;38013;48.810;8.818;2023-02-18T05:00:15;13.60;64.70
50548;DHT22;38013;48.810;8.818;2023-02-18T05:02:44;13.50;64.60
50548;DHT22;38013;48.810;8.818;2023-02-18T05:05:12;13.60;64.70
50548;DHT22;38013;48.810;8.818;2023-02-18T05:07:39;13.50;64.60
50548;DHT22;38013;48.810;8.818;2023-02-18T05:10:09;13.50;64.50
50548;DHT22;38013;48.810;8.818;2023-02-18T05:12:37;13.60;64.60
50548;DHT22;38013;48.810;8.818;2023-02-18T05:15:04;13.60;64.60
50548;DHT22;38013;48.810;8.818;2023-02-18T05:17:32;13.60;64.60
50548;DHT22;38013;48.810;8.818;2023-02-18T05:19:59;13.60;64.50
50548;DHT22;38013;48.810;8.818;2023-02-18T05:22:26;13.60;64.40
50548;DHT22;38013;48.810;8.818;2023-02-18T05:24:53;13.60;64.20
50548;DHT22;38013;48.810;8.818;2023-02-18T05:27:19;13.60;64.20
50548;DHT22;38013;48.810;8.818;2023-02-18T05:29:46;13.60;64.30
50548;DHT22;38013;48.810;8.818;2023-02-18T05:32:13;13.70;64.30
50548;DHT22;38013;48.810;8.818;2023-02-18T05:34:40;13.70;64.20
50548;DHT22;38013;48.810;8.818;2023-02-18T05:37:07;13.70;64.10
50548;DHT22;38013;48.810;8.818;2023-02-18T05:39:34;13.70;64.10
50548;DHT22;38013;48.810;8.818;2023-02-18T05:42:00;13.70;64.00
50548;DHT22;38013;48.810;8.818;2023-02-18T05:44:27;13.70;63.90
50548;DHT22;38013;48.810;8.818;2023-02-18T05:47:07;13.70;64.00
50548;DHT22;38013;48.810;8.818;2023-02-18T05:49:38;13.80;64.00
50548;DHT22;38013;48.810;8.818;2023-02-18T05:52:07;13.80;63.90
50548;DHT22;38013;48.810;8.818;2023-02-18T05:54:35;13.80;63.90
50548;DHT22;38013;48.810;8.818;2023-02-18T05:57:03;13.80;63.80
50548;DHT22;38013;48.810;8.818;2023-02-18T05:59:30;13.80;63.80
50548;DHT22;38013;48.810;8.818;2023-02-18T06:01:57;13.90;63.90
50548;DHT22;38013;48.810;8.818;2023-02-18T06:04:24;13.90;63.80
50548;DHT22;38013;48.810;8.818;2023-02-18T06:06:51;13.90;63.80
50548;DHT22;38013;48.810;8.818;2023-02-18T06:09:18;13.90;63.60
50548;DHT22;38013;48.810;8.818;2023-02-18T06:11:44;13.90;63.60
50548;DHT22;38013;48.810;8.818;2023-02-18T06:14:11;14.00;63.60
50548;DHT22;38013;48.810;8.818;2023-02-18T06:16:38;13.90;63.40
50548;DHT22;38013;48.810;8.818;2023-02-18T06:19:05;14.00;63.40
50548;DHT22;38013;48.810;8.818;2023-02-18T06:21:32;14.00;63.40
50548;DHT22;38013;48.810;8.818;2023-02-18T06:23:59;14.00;63.40
50548;DHT22;38013;48.810;8.818;2023-02-18T06:26:26;14.00;63.40
50548;DHT22;38013;48.810;8.818;2023-02-18T06:28:52;14.00;63.40
50548;DHT22;38013;48.810;8.818;2023-02-18T06:31:19;14.00;63.30
50548;DHT22;38013;48.810;8.818;2023-02-18T06:33:46;14.00;63.30
50548;DHT22;38013;48.810;8.818;2023-02-18T06:36:13;14.00;63.30
50548;DHT22;38013;48.810;8.818;2023-02-18T06:38:42;14.00;63.30
50548;DHT22;38013;48.810;8.818;2023-02-18T06:41:10;14.00;63.20
50548;DHT22;38013;48.810;8.818;2023-02-18T06:43:38;14.00;63.30
50548;DHT22;38013;48.810;8.818;2023-02-18T06:46:06;14.10;63.40
50548;DHT22;38013;48.810;8.818;2023-02-18T06:48:33;14.10;63.30
50548;DHT22;38013;48.810;8.818;2023-02-18T06:51:00;14.10;63.20
50548;DHT22;38013;48.810;8.818;2023-02-18T06:53:27;14.10;63.10
50548;DHT22;38013;48.810;8.818;2023-02-18T06:55:54;14.10;63.20
50548;DHT22;38013;48.810;8.818;2023-02-18T06:58:20;14.10;63.00
50548;DHT22;38013;48.810;8.818;2023-02-18T07:00:48;14.10;63.00
50548;DHT22;38013;48.810;8.818;2023-02-18T07:03:15;14.10;63.00
50548;DHT22;38013;48.810;8.818;2023-02-18T07:05:42;14.10;63.00
50548;DHT22;38013;48.810;8.818;2023-02-18T07:08:09;14.20;62.90
50548;DHT22;38013;48.810;8.818;2023-02-18T07:10:36;14.20;62.90
50548;DHT22;38013;48.810;8.818;2023-02-18T07:13:04;14.20;63.50
50548;DHT22;38013;48.810;8.818;2023-02-18T07:15:31;14.20;62.80
50548;DHT22;38013;48.810;8.818;2023-02-18T07:17:58;14.20;62.90
50548;DHT22;38013;48.810;8.818;2023-02-18T07:20:25;14.20;62.80
50548;DHT22;38013;48.810;8.818;2023-02-18T07:22:53;14.20;62.80
50548;DHT22;38013;48.810;8.818;2023-02-18T07:25:19;14.30;62.90
50548;DHT22;38013;48.810;8.818;2023-02-18T07:27:49;14.30;62.90
50548;DHT22;38013;48.810;8.818;2023-02-18T07:30:17;14.20;62.80
50548;DHT22;38013;48.810;8.818;2023-02-18T07:32:45;14.20;62.90
50548;DHT22;38013;48.810;8.818;2023-02-18T07:35:13;14.30;62.90
50548;DHT22;38013;48.810;8.818;2023-02-18T07:37:45;14.20;62.80
50548;DHT22;38013;48.810;8.818;2023-02-18T07:40:15;14.30;62.80
50548;DHT22;38013;48.810;8.818;2023-02-18T07:42:43;14.30;62.90
50548;DHT22;38013;48.810;8.818;2023-02-18T07:45:11;14.30;62.70
50548;DHT22;38013;48.810;8.818;2023-02-18T07:47:38;14.30;62.80
50548;DHT22;38013;48.810;8.818;2023-02-18T07:50:06;14.30;62.80
50548;DHT22;38013;48.810;8.818;2023-02-18T07:52:33;14.40;62.70
50548;DHT22;38013;48.810;8.818;2023-02-18T07:55:00;14.40;62.80
50548;DHT22;38013;48.810;8.818;2023-02-18T07:57:27;14.40;62.80
50548;DHT22;38013;48.810;8.818;2023-02-18T07:59:54;14.40;62.70
50548;DHT22;38013;48.810;8.818;2023-02-18T08:02:22;14.40;62.60
50548;DHT22;38013;48.810;8.818;2023-02-18T08:04:50;14.40;62.70
50548;DHT22;38013;48.810;8.818;2023-02-18T08:07:18;14.50;62.50
50548;DHT22;38013;48.810;8.818;2023-02-18T08:09:46;14.50;62.50
50548;DHT22;38013;48.810;8.818;2023-02-18T08:12:15;14.50;62.60
50548;DHT22;38013;48.810;8.818;2023-02-18T08:14:42;14.50;62.30
50548;DHT22;38013;48.810;8.818;2023-02-18T08:17:09;14.50;62.30
50548;DHT22;38013;48.810;8.818;2023-02-18T08:19:36;14.50;62.20
50548;DHT22;38013;48.810;8.818;2023-02-18T08:22:03;14.50;62.20
50548;DHT22;38013;48.810;8.818;2023-02-18T08:24:29;14.50;62.10
50548;DHT22;38013;48.810;8.818;2023-02-18T08:26:56;14.50;62.10
50548;DHT22;38013;48.810;8.818;2023-02-18T08:29:27;14.50;62.20
50548;DHT22;38013;48.810;8.818;2023-02-18T08:31:55;14.50;62.20
50548;DHT22;38013;48.810;8.818;2023-02-18T08:34:24;14.50;62.20
50548;DHT22;38013;48.810;8.818;2023-02-18T08:36:51;14.50;62.30
50548;DHT22;38013;48.810;8.818;2023-02-18T08:39:18;14.50;62.20
50548;DHT22;38013;48.810;8.818;2023-02-18T08:41:45;14.50;62.40
50548;DHT22;38013;48.810;8.818;2023-02-18T08:44:11;14.60;62.50
50548;DHT22;38013;48.810;8.818;2023-02-18T08:46:38;14.60;62.50
50548;DHT22;38013;48.810;8.818;2023-02-18T08:49:05;14.60;62.50
50548;DHT22;38013;48.810;8.818;2023-02-18T08:51:33;14.60;62.70
50548;DHT22;38013;48.810;8.818;2023-02-18T08:54:00;14.70;62.70
50548;DHT22;38013;48.810;8.818;2023-02-18T08:56:27;14.70;62.50
50548;DHT22;38013;48.810;8.818;2023-02-18T08:58:54;14.70;62.60
50548;DHT22;38013;48.810;8.818;2023-02-18T09:01:21;14.70;62.50
50548;DHT22;38013;48.810;8.818;2023-02-18T09:03:48;14.70;62.60
50548;DHT22;38013;48.810;8.818;2023-02-18T09:06:15;14.70;62.60
50548;DHT22;38013;48.810;8.818;2023-02-18T09:08:42;14.70;62.60
50548;DHT22;38013;48.810;8.818;2023-02-18T09:11:10;14.80;62.60
50548;DHT22;38013;48.810;8.818;2023-02-18T09:13:37;14.80;62.70
50548;DHT22;38013;48.810;8.818;2023-02-18T09:16:15;14.80;62.70
50548;DHT22;38013;48.810;8.818;2023-02-18T09:18:44;14.80;63.40
50548;DHT22;38013;48.810;8.818;2023-02-18T09:21:14;15.00;62.70
50548;DHT22;38013;48.810;8.818;2023-02-18T09:23:44;15.00;62.60
50548;DHT22;38013;48.810;8.818;2023-02-18T09:26:14;15.00;62.30
50548;DHT22;38013;48.810;8.818;2023-02-18T09:28:42;15.00;62.10
50548;DHT22;38013;48.810;8.818;2023-02-18T09:31:12;15.10;62.20
50548;DHT22;38013;48.810;8.818;2023-02-18T09:33:45;15.10;61.70
50548;DHT22;38013;48.810;8.818;2023-02-18T09:36:17;15.20;61.80
50548;DHT22;38013;48.810;8.818;2023-02-18T09:38:46;15.20;61.70
50548;DHT22;38013;48.810;8.818;2023-02-18T09:43:55;15.20;61.50
50548;DHT22;38013;48.810;8.818;2023-02-18T09:47:05;15.20;61.30
50548;DHT22;38013;48.810;8.818;2023-02-18T09:49:46;15.20;61.00
50548;DHT22;38013;48.810;8.818;2023-02-18T09:52:25;15.20;61.10
50548;DHT22;38013;48.810;8.818;2023-02-18T09:54:55;15.20;61.00
50548;DHT22;38013;48.810;8.818;2023-02-18T09:57:26;15.20;60.80
50548;DHT22;38013;48.810;8.818;2023-02-18T10:00:00;15.30;60.90
50548;DHT22;38013;48.810;8.818;2023-02-18T10:02:38;15.20;60.70
50548;DHT22;38013;48.810;8.818;2023-02-18T10:05:12;15.20;60.40
50548;DHT22;38013;48.810;8.818;2023-02-18T10:07:41;15.20;60.50
50548;DHT22;38013;48.810;8.818;2023-02-18T10:10:21;15.20;60.40
50548;DHT22;38013;48.810;8.818;2023-02-18T10:12:54;15.20;60.40
50548;DHT22;38013;48.810;8.818;2023-02-18T10:15:23;15.20;60.60
50548;DHT22;38013;48.810;8.818;2023-02-18T10:17:56;15.10;60.60
50548;DHT22;38013;48.810;8.818;2023-02-18T10:20:28;15.10;60.70
50548;DHT22;38013;48.810;8.818;2023-02-18T10:22:58;15.10;60.70
50548;DHT22;38013;48.810;8.818;2023-02-18T10:25:27;15.10;60.80
50548;DHT22;38013;48.810;8.818;2023-02-18T10:27:56;15.20;60.90
50548;DHT22;38013;48.810;8.818;2023-02-18T10:30:35;15.20;60.50
50548;DHT22;38013;48.810;8.818;2023-02-18T10:33:30;15.20;60.50
50548;DHT22;38013;48.810;8.818;2023-02-18T10:36:21;15.20;60.30
50548;DHT22;38013;48.810;8.818;2023-02-18T10:41:57;15.30;60.30
50548;DHT22;38013;48.810;8.818;2023-02-18T10:44:50;15.30;60.40
50548;DHT22;38013;48.810;8.818;2023-02-18T10:48:10;15.30;60.00
50548;DHT22;38013;48.810;8.818;2023-02-18T10:50:52;15.40;59.70
50548;DHT22;38013;48.810;8.818;2023-02-18T10:53:30;15.30;60.00
50548;DHT22;38013;48.810;8.818;2023-02-18T10:56:00;15.30;59.70
50548;DHT22;38013;48.810;8.818;2023-02-18T10:58:43;15.30;59.90
50548;DHT22;38013;48.810;8.818;2023-02-18T11:01:14;15.30;59.70
50548;DHT22;38013;48.810;8.818;2023-02-18T11:03:51;15.30;59.80
50548;DHT22;38013;48.810;8.818;2023-02-18T11:06:45;15.30;59.60
50548;DHT22;38013;48.810;8.818;2023-02-18T11:12:31;15.20;59.70
50548;DHT22;38013;48.810;8.818;2023-02-18T11:17:35;15.30;59.90
50548;DHT22;38013;48.810;8.818;2023-02-18T11:20:35;15.30;59.90
50548;DHT22;38013;48.810;8.818;2023-02-18T11:25:37;15.30;59.50
50548;DHT22;38013;48.810;8.818;2023-02-18T11:28:30;15.30;59.10
50548;DHT22;38013;48.810;8.818;2023-02-18T11:31:07;15.40;58.80
50548;DHT22;38013;48.810;8.818;2023-02-18T11:33:40;15.40;59.30
50548;DHT22;38013;48.810;8.818;2023-02-18T11:36:22;15.40;59.00
50548;DHT22;38013;48.810;8.818;2023-02-18T11:38:51;15.40;59.00
50548;DHT22;38013;48.810;8.818;2023-02-18T11:41:28;15.40;59.10
50548;DHT22;38013;48.810;8.818;2023-02-18T11:43:57;15.40;58.80
50548;DHT22;38013;48.810;8.818;2023-02-18T11:46:26;15.40;58.90
50548;DHT22;38013;48.810;8.818;2023-02-18T11:48:53;15.40;59.00
50548;DHT22;38013;48.810;8.818;2023-02-18T11:51:24;15.40;59.00
50548;DHT22;38013;48.810;8.818;2023-02-18T11:54:01;15.40;59.00
50548;DHT22;38013;48.810;8.818;2023-02-18T11:56:34;15.40;58.80
50548;DHT22;38013;48.810;8.818;2023-02-18T11:59:02;15.40;58.70
50548;DHT22;38013;48.810;8.818;2023-02-18T12:01:46;15.40;58.90
50548;DHT22;38013;48.810;8.818;2023-02-18T12:04:18;15.40;58.80
50548;DHT22;38013;48.810;8.818;2023-02-18T12:07:20;15.50;59.10
50548;DHT22;38013;48.810;8.818;2023-02-18T12:10:02;15.50;58.60
50548;DHT22;38013;48.810;8.818;2023-02-18T12:12:39;15.50;58.80
50548;DHT22;38013;48.810;8.818;2023-02-18T12:15:22;15.50;58.90
50548;DHT22;38013;48.810;8.818;2023-02-18T12:18:09;15.50;58.60
50548;DHT22;38013;48.810;8.818;2023-02-18T12:21:13;15.50;59.00
50548;DHT22;38013;48.810;8.818;2023-02-18T12:32:46;15.40;58.70
50548;DHT22;38013;48.810;8.818;2023-02-18T12:41:00;15.30;59.10
50548;DHT22;38013;48.810;8.818;2023-02-18T12:44:06;15.30;59.20
50548;DHT22;38013;48.810;8.818;2023-02-18T12:49:51;15.20;59.10
50548;DHT22;38013;48.810;8.818;2023-02-18T12:53:01;15.20;59.40
50548;DHT22;38013;48.810;8.818;2023-02-18T13:10:53;15.10;59.40
50548;DHT22;38013;48.810;8.818;2023-02-18T13:13:21;15.00;59.40
50548;DHT22;38013;48.810;8.818;2023-02-18T13:16:03;15.10;59.70
50548;DHT22;38013;48.810;8.818;2023-02-18T13:18:41;15.10;59.60
50548;DHT22;38013;48.810;8.818;2023-02-18T13:21:12;15.00;59.60
50548;DHT22;38013;48.810;8.818;2023-02-18T13:24:02;15.00;59.80
50548;DHT22;38013;48.810;8.818;2023-02-18T13:26:32;15.00;59.70
50548;DHT22;38013;48.810;8.818;2023-02-18T13:34:53;15.10;60.00
50548;DHT22;38013;48.810;8.818;2023-02-18T13:39:58;15.00;59.80
50548;DHT22;38013;48.810;8.818;2023-02-18T13:42:36;15.10;59.90
50548;DHT22;38013;48.810;8.818;2023-02-18T13:45:22;15.10;59.80
50548;DHT22;38013;48.810;8.818;2023-02-18T13:47:53;15.20;59.90
50548;DHT22;38013;48.810;8.818;2023-02-18T13:55:50;15.30;59.90
50548;DHT22;38013;48.810;8.818;2023-02-18T13:58:43;15.30;59.60
50548;DHT22;38013;48.810;8.818;2023-02-18T14:01:43;15.30;59.90
50548;DHT22;38013;48.810;8.818;2023-02-18T14:09:52;15.30;59.50
50548;DHT22;38013;48.810;8.818;2023-02-18T14:28:43;15.50;60.30
50548;DHT22;38013;48.810;8.818;2023-02-18T14:31:20;15.50;60.30
50548;DHT22;38013;48.810;8.818;2023-02-18T14:37:17;15.50;60.20
50548;DHT22;38013;48.810;8.818;2023-02-18T14:40:22;15.60;59.90
50548;DHT22;38013;48.810;8.818;2023-02-18T14:43:04;15.60;59.70
50548;DHT22;38013;48.810;8.818;2023-02-18T14:48:45;15.50;59.50
50548;DHT22;38013;48.810;8.818;2023-02-18T14:51:22;15.40;59.60
50548;DHT22;38013;48.810;8.818;2023-02-18T14:53:51;15.40;60.00
50548;DHT22;38013;48.810;8.818;2023-02-18T14:56:20;15.30;60.10
50548;DHT22;38013;48.810;8.818;2023-02-18T14:58:51;15.20;61.00
50548;DHT22;38013;48.810;8.818;2023-02-18T15:01:33;15.20;60.50
50548;DHT22;38013;48.810;8.818;2023-02-18T15:04:02;15.10;60.80
50548;DHT22;38013;48.810;8.818;2023-02-18T15:06:33;15.10;60.80
50548;DHT22;38013;48.810;8.818;2023-02-18T15:09:22;15.10;60.90
50548;DHT22;38013;48.810;8.818;2023-02-18T15:11:54;15.10;61.30
50548;DHT22;38013;48.810;8.818;2023-02-18T15:14:28;15.10;61.30
50548;DHT22;38013;48.810;8.818;2023-02-18T15:16:56;15.10;61.30
50548;DHT22;38013;48.810;8.818;2023-02-18T15:19:26;15.00;61.40
50548;DHT22;38013;48.810;8.818;2023-02-18T15:21:56;15.00;61.40
50548;DHT22;38013;48.810;8.818;2023-02-18T15:27:01;15.00;61.60
50548;DHT22;38013;48.810;8.818;2023-02-18T15:29:39;15.00;61.50
50548;DHT22;38013;48.810;8.818;2023-02-18T15:32:16;15.00;61.60
50548;DHT22;38013;48.810;8.818;2023-02-18T15:34:44;14.90;61.40
50548;DHT22;38013;48.810;8.818;2023-02-18T15:37:12;14.90;61.40
50548;DHT22;38013;48.810;8.818;2023-02-18T15:39:41;14.90;61.60
50548;DHT22;38013;48.810;8.818;2023-02-18T15:42:23;14.80;61.60
50548;DHT22;38013;48.810;8.818;2023-02-18T15:47:31;14.80;61.90
50548;DHT22;38013;48.810;8.818;2023-02-18T15:50:00;14.80;61.90
50548;DHT22;38013;48.810;8.818;2023-02-18T15:52:30;14.70;61.90
50548;DHT22;38013;48.810;8.818;2023-02-18T15:55:08;14.70;62.10
50548;DHT22;38013;48.810;8.818;2023-02-18T15:57:38;14.60;62.20
50548;DHT22;38013;48.810;8.818;2023-02-18T16:00:15;14.60;62.20
50548;DHT22;38013;48.810;8.818;2023-02-18T16:02:54;14.60;62.40
50548;DHT22;38013;48.810;8.818;2023-02-18T16:05:27;14.60;62.50
50548;DHT22;38013;48.810;8.818;2023-02-18T16:08:00;14.60;62.60
50548;DHT22;38013;48.810;8.818;2023-02-18T16:10:37;14.60;62.60
50548;DHT22;38013;48.810;8.818;2023-02-18T16:13:13;14.60;62.40
50548;DHT22;38013;48.810;8.818;2023-02-18T16:15:43;14.50;62.40
50548;DHT22;38013;48.810;8.818;2023-02-18T16:18:29;14.50;62.50
50548;DHT22;38013;48.810;8.818;2023-02-18T16:21:04;14.40;62.70
50548;DHT22;38013;48.810;8.818;2023-02-18T16:23:44;14.40;62.60
50548;DHT22;38013;48.810;8.818;2023-02-18T16:29:13;14.40;62.80
50548;DHT22;38013;48.810;8.818;2023-02-18T16:31:42;14.40;62.90
50548;DHT22;38013;48.810;8.818;2023-02-18T16:34:09;14.40;62.90
50548;DHT22;38013;48.810;8.818;2023-02-18T16:36:36;14.30;62.90
50548;DHT22;38013;48.810;8.818;2023-02-18T16:39:03;14.30;62.90
50548;DHT22;38013;48.810;8.818;2023-02-18T16:41:29;14.30;63.00
50548;DHT22;38013;48.810;8.818;2023-02-18T16:43:56;14.20;63.00
50548;DHT22;38013;48.810;8.818;2023-02-18T16:46:24;14.20;63.10
50548;DHT22;38013;48.810;8.818;2023-02-18T16:48:54;14.20;63.30
50548;DHT22;38013;48.810;8.818;2023-02-18T16:51:23;14.10;63.40
50548;DHT22;38013;48.810;8.818;2023-02-18T16:53:51;14.00;63.40
50548;DHT22;38013;48.810;8.818;2023-02-18T16:56:21;14.00;63.40
50548;DHT22;38013;48.810;8.818;2023-02-18T16:58:49;13.90;63.50
50548;DHT22;38013;48.810;8.818;2023-02-18T17:01:29;13.90;63.60
50548;DHT22;38013;48.810;8.818;2023-02-18T17:03:57;13.90;64.00
50548;DHT22;38013;48.810;8.818;2023-02-18T17:06:27;13.80;63.80
50548;DHT22;38013;48.810;8.818;2023-02-18T17:08:54;13.80;64.20
50548;DHT22;38013;48.810;8.818;2023-02-18T17:11:29;13.80;64.20
50548;DHT22;38013;48.810;8.818;2023-02-18T17:13:58;13.70;64.30
50548;DHT22;38013;48.810;8.818;2023-02-18T17:16:26;13.70;64.50
50548;DHT22;38013;48.810;8.818;2023-02-18T17:18:53;13.60;64.60
50548;DHT22;38013;48.810;8.818;2023-02-18T17:21:22;13.60;64.70
50548;DHT22;38013;48.810;8.818;2023-02-18T17:23:50;13.60;64.80
50548;DHT22;38013;48.810;8.818;2023-02-18T17:26:26;13.60;64.80
50548;DHT22;38013;48.810;8.818;2023-02-18T17:28:55;13.60;65.20
50548;DHT22;38013;48.810;8.818;2023-02-18T17:31:32;13.60;64.90
50548;DHT22;38013;48.810;8.818;2023-02-18T17:34:07;13.60;65.20
50548;DHT22;38013;48.810;8.818;2023-02-18T17:36:36;13.60;65.20
50548;DHT22;38013;48.810;8.818;2023-02-18T17:39:09;13.60;65.10
50548;DHT22;38013;48.810;8.818;2023-02-18T17:41:38;13.50;65.30
50548;DHT22;38013;48.810;8.818;2023-02-18T17:44:15;13.50;65.30
50548;DHT22;38013;48.810;8.818;2023-02-18T17:46:43;13.50;65.60
50548;DHT22;38013;48.810;8.818;2023-02-18T17:49:10;13.50;65.30
50548;DHT22;38013;48.810;8.818;2023-02-18T17:51:37;13.50;65.40
50548;DHT22;38013;48.810;8.818;2023-02-18T17:54:11;13.50;65.40
50548;DHT22;38013;48.810;8.818;2023-02-18T17:56:39;13.50;66.20
50548;DHT22;38013;48.810;8.818;2023-02-18T17:59:06;13.40;65.40
50548;DHT22;38013;48.810;8.818;2023-02-18T18:01:33;13.40;65.50
50548;DHT22;38013;48.810;8.818;2023-02-18T18:04:00;13.40;65.40
50548;DHT22;38013;48.810;8.818;2023-02-18T18:06:28;13.40;65.50
50548;DHT22;38013;48.810;8.818;2023-02-18T18:08:54;13.40;65.50